Time;durP1;ratioP1;P1;durP2;ratioP2;P2;SDS_P1;SDS_P2;PMS_P1;PMS_P2;Temp;Humidity;BMP_temperature;BMP_pressure;BME280_temperature;BME280_humidity;BME280_pressure;Samples;Min_cycle;Max_cycle;Signal;HPM_P1;HPM_P2
2021/07/07 00:01:55;;;;;;;11.27;2.60;;;16.30;99.90;;;;;;5008710;28;25070;-65
2021/07/07 00:04:20;;;;;;;6.18;2.40;;;16.40;99.90;;;;;;5008320;28;25098;-66
2021/07/07 00:06:46;;;;;;;5.70;2.58;;;16.30;99.90;;;;;;5009252;28;25085;-66
2021/07/07 00:09:11;;;;;;;5.05;2.10;;;16.30;99.90;;;;;;5009272;28;25071;-66
2021/07/07 00:11:37;;;;;;;6.95;2.65;;;16.20;99.90;;;;;;5008270;28;25063;-66
2021/07/07 00:14:03;;;;;;;6.53;2.55;;;16.10;99.90;;;;;;5008676;28;25145;-65
2021/07/07 00:16:28;;;;;;;7.28;3.10;;;16.10;99.90;;;;;;5008817;28;25075;-65
2021/07/07 00:18:54;;;;;;;12.15;2.60;;;16.20;99.90;;;;;;5008121;28;25073;-66
2021/07/07 00:21:20;;;;;;;9.73;2.38;;;16.00;99.90;;;;;;5010155;28;25053;-66
2021/07/07 00:23:45;;;;;;;4.60;2.30;;;15.90;99.90;;;;;;5009185;28;25071;-66
2021/07/07 00:26:11;;;;;;;8.27;2.63;;;15.90;99.90;;;;;;5009509;28;25139;-65
2021/07/07 00:28:36;;;;;;;5.65;2.67;;;15.90;99.90;;;;;;5008734;28;25076;-66
2021/07/07 00:31:03;;;;;;;6.90;2.40;;;15.90;99.90;;;;;;5003660;28;25127;-66
2021/07/07 00:33:28;;;;;;;9.00;2.45;;;16.00;99.90;;;;;;5004623;28;25122;-66
2021/07/07 00:35:54;;;;;;;7.57;2.60;;;16.00;99.90;;;;;;4996864;28;25141;-65
2021/07/07 00:38:19;;;;;;;3.63;2.40;;;15.90;99.90;;;;;;5008112;28;25069;-65
2021/07/07 00:40:45;;;;;;;4.35;2.30;;;15.90;99.90;;;;;;4997555;28;25171;-65
2021/07/07 00:43:14;;;;;;;4.97;2.40;;;15.90;99.90;;;;;;5007290;28;25066;-66
2021/07/07 00:45:40;;;;;;;6.47;2.58;;;15.90;99.90;;;;;;5006487;28;25142;-66
2021/07/07 00:48:06;;;;;;;8.80;2.10;;;15.90;99.90;;;;;;5009026;28;25135;-66
2021/07/07 00:50:32;;;;;;;6.70;2.85;;;15.90;99.90;;;;;;4991817;28;25056;-65
2021/07/07 00:52:58;;;;;;;5.32;2.92;;;15.80;99.90;;;;;;4999788;28;25065;-66
2021/07/07 00:55:24;;;;;;;8.93;2.40;;;15.90;99.90;;;;;;5008267;28;25124;-65
2021/07/07 00:57:51;;;;;;;6.03;2.90;;;15.80;99.90;;;;;;5002851;28;25061;-65
2021/07/07 01:00:23;;;;;;;12.85;3.03;;;15.90;99.90;;;;;;5006320;28;25070;-65
2021/07/07 01:02:51;;;;;;;9.65;2.75;;;15.80;99.90;;;;;;5007828;28;25108;-65
2021/07/07 01:05:17;;;;;;;8.80;3.10;;;15.80;99.90;;;;;;5006037;28;25065;-65
2021/07/07 01:07:43;;;;;;;11.05;3.40;;;15.80;99.90;;;;;;5006888;28;25139;-67
2021/07/07 01:10:11;;;;;;;6.97;2.95;;;15.80;99.90;;;;;;5008026;28;25144;-66
2021/07/07 01:12:37;;;;;;;7.53;2.63;;;15.80;99.90;;;;;;5005803;28;25077;-66
2021/07/07 01:15:06;;;;;;;9.60;3.10;;;15.70;99.90;;;;;;5005821;28;25053;-69
2021/07/07 01:17:32;;;;;;;9.10;3.47;;;15.80;99.90;;;;;;5005588;28;25100;-66
2021/07/07 01:20:05;;;;;;;12.73;3.60;;;15.70;99.90;;;;;;5007294;28;25076;-66
2021/07/07 01:22:30;;;;;;;8.75;3.05;;;15.70;99.90;;;;;;5006623;28;25081;-66
2021/07/07 01:24:57;;;;;;;7.20;3.13;;;15.70;99.90;;;;;;5003871;28;25078;-66
2021/07/07 01:27:25;;;;;;;6.90;2.78;;;15.70;99.90;;;;;;5006859;28;25133;-66
2021/07/07 01:32:17;;;;;;;5.80;3.55;;;15.70;99.90;;;;;;4999522;22;25160;-62
2021/07/07 01:34:43;;;;;;;8.48;3.40;;;15.60;99.90;;;;;;4988494;28;25067;-62
2021/07/07 01:37:08;;;;;;;6.65;3.00;;;15.60;99.90;;;;;;4992348;28;25068;-62
2021/07/07 01:39:34;;;;;;;8.65;3.30;;;15.60;99.90;;;;;;5009694;28;25156;-63
2021/07/07 01:41:59;;;;;;;4.60;3.22;;;15.50;99.90;;;;;;4989171;28;25082;-62
2021/07/07 01:44:25;;;;;;;5.43;2.88;;;15.60;99.90;;;;;;4988043;28;25124;-63
2021/07/07 01:46:50;;;;;;;17.48;3.45;;;15.70;99.90;;;;;;4986608;28;25056;-62
2021/07/07 01:49:16;;;;;;;5.55;3.05;;;15.70;99.90;;;;;;4985371;28;25067;-63
2021/07/07 01:51:42;;;;;;;5.38;3.20;;;15.70;99.90;;;;;;4986147;28;25076;-62
2021/07/07 01:54:07;;;;;;;7.22;2.90;;;15.80;99.90;;;;;;4988183;28;25093;-62
2021/07/07 01:56:34;;;;;;;9.30;3.85;;;15.80;99.90;;;;;;4988179;28;25067;-62
2021/07/07 01:58:59;;;;;;;9.15;3.13;;;15.80;99.90;;;;;;4982924;28;25143;-65
2021/07/07 02:01:25;;;;;;;4.97;2.35;;;15.80;99.90;;;;;;4987909;28;25127;-63
2021/07/07 02:03:50;;;;;;;9.63;2.97;;;15.70;99.90;;;;;;4988455;28;25111;-62
2021/07/07 02:06:16;;;;;;;8.82;3.30;;;15.80;99.90;;;;;;4987991;28;25064;-62
2021/07/07 02:08:42;;;;;;;8.82;3.20;;;15.80;99.90;;;;;;4986312;28;25074;-62
2021/07/07 02:11:07;;;;;;;10.98;2.95;;;15.70;99.90;;;;;;4987326;28;25082;-61
2021/07/07 02:13:33;;;;;;;6.60;2.95;;;15.80;99.90;;;;;;4987558;28;25066;-63
2021/07/07 02:15:59;;;;;;;7.38;3.15;;;15.80;99.90;;;;;;4987947;28;25072;-64
2021/07/07 02:18:25;;;;;;;12.23;2.95;;;15.80;99.90;;;;;;4986374;28;25074;-61
2021/07/07 02:20:50;;;;;;;3.67;2.58;;;15.80;99.90;;;;;;4987842;28;25059;-62
2021/07/07 02:23:16;;;;;;;7.05;2.30;;;15.80;99.90;;;;;;4987136;28;25143;-63
2021/07/07 02:25:44;;;;;;;5.65;2.83;;;15.80;99.90;;;;;;4988302;28;25075;-63
2021/07/07 02:28:11;;;;;;;6.47;2.53;;;15.80;99.90;;;;;;4986933;28;25056;-62
2021/07/07 02:30:38;;;;;;;4.75;2.40;;;15.80;99.90;;;;;;4985318;28;25173;-62
2021/07/07 02:33:06;;;;;;;9.40;2.58;;;15.90;99.90;;;;;;4987826;28;25126;-61
2021/07/07 02:35:34;;;;;;;5.97;1.98;;;15.90;99.90;;;;;;4989519;28;25047;-62
2021/07/07 02:38:01;;;;;;;6.38;2.10;;;15.90;99.90;;;;;;4998707;28;25053;-61
2021/07/07 02:40:30;;;;;;;4.88;2.47;;;16.00;99.90;;;;;;5001834;28;25135;-62
2021/07/07 02:42:56;;;;;;;5.22;2.13;;;16.00;99.90;;;;;;5003910;28;25062;-62
2021/07/07 02:45:22;;;;;;;5.28;1.90;;;16.00;99.90;;;;;;4992620;28;25071;-61
2021/07/07 02:47:48;;;;;;;4.35;2.10;;;16.00;99.90;;;;;;4991563;28;25066;-62
2021/07/07 02:50:16;;;;;;;6.22;2.40;;;16.00;99.90;;;;;;4991161;28;25116;-62
2021/07/07 02:52:44;;;;;;;7.05;2.38;;;16.00;99.90;;;;;;4990420;28;25133;-62
2021/07/07 02:55:14;;;;;;;8.77;2.30;;;16.00;99.90;;;;;;4991759;28;25085;-61
2021/07/07 02:57:59;;;;;;;5.32;2.20;;;16.00;99.90;;;;;;4986005;28;25080;-61
2021/07/07 03:00:40;;;;;;;8.57;2.40;;;15.90;99.90;;;;;;4991832;28;25128;-63
2021/07/07 03:03:19;;;;;;;5.43;1.90;;;15.90;99.90;;;;;;4987420;28;25147;-62
2021/07/07 03:05:52;;;;;;;4.95;2.20;;;16.00;99.90;;;;;;4991309;28;25132;-64
2021/07/07 03:08:19;;;;;;;6.78;2.25;;;15.90;99.90;;;;;;4991128;28;25074;-62
2021/07/07 03:10:45;;;;;;;4.80;2.90;;;16.00;99.90;;;;;;4992957;28;25069;-62
2021/07/07 03:13:12;;;;;;;9.40;2.42;;;16.00;99.90;;;;;;4991931;28;25056;-62
2021/07/07 03:15:39;;;;;;;6.90;2.78;;;15.90;99.90;;;;;;4991667;28;25118;-62
2021/07/07 03:18:05;;;;;;;6.00;2.40;;;15.90;99.90;;;;;;4993261;28;25113;-62
2021/07/07 03:20:32;;;;;;;8.38;3.00;;;15.90;99.90;;;;;;4992677;28;25074;-62
2021/07/07 03:22:58;;;;;;;9.20;2.85;;;16.00;99.90;;;;;;4992788;28;25067;-62
2021/07/07 03:25:24;;;;;;;5.22;2.45;;;16.00;99.90;;;;;;4987984;28;25064;-62
2021/07/07 03:27:50;;;;;;;8.52;3.05;;;16.00;99.90;;;;;;4989217;28;25145;-62
2021/07/07 03:30:16;;;;;;;9.18;4.00;;;15.90;99.90;;;;;;4990574;28;25071;-62
2021/07/07 03:32:43;;;;;;;10.70;3.53;;;15.90;99.90;;;;;;4989539;28;25115;-61
2021/07/07 03:35:09;;;;;;;6.03;2.63;;;15.90;99.90;;;;;;4991003;28;25111;-62
2021/07/07 03:37:35;;;;;;;6.07;2.70;;;15.80;99.90;;;;;;5002504;28;25047;-61
2021/07/07 03:40:00;;;;;;;5.18;3.20;;;15.80;99.90;;;;;;4998831;28;25068;-62
2021/07/07 03:42:26;;;;;;;5.55;2.97;;;15.80;99.90;;;;;;4990603;28;25120;-62
2021/07/07 03:44:52;;;;;;;6.40;2.72;;;15.70;99.90;;;;;;4997390;28;25141;-62
2021/07/07 03:47:17;;;;;;;8.00;3.08;;;15.80;99.90;;;;;;4988327;28;25061;-61
2021/07/07 03:49:43;;;;;;;5.07;3.25;;;15.80;99.90;;;;;;4989609;28;25166;-62
2021/07/07 03:52:08;;;;;;;8.32;3.15;;;15.70;99.90;;;;;;4989862;28;25069;-63
2021/07/07 03:54:34;;;;;;;8.45;3.38;;;15.70;99.90;;;;;;4994228;28;25077;-62
2021/07/07 03:57:00;;;;;;;5.90;2.97;;;15.80;99.90;;;;;;4990729;28;25094;-63
2021/07/07 03:59:26;;;;;;;4.75;3.20;;;15.90;99.90;;;;;;4994346;28;25076;-63
2021/07/07 04:01:52;;;;;;;9.02;3.60;;;15.90;99.90;;;;;;4991617;28;25148;-64
2021/07/07 04:04:18;;;;;;;12.13;3.40;;;15.90;99.90;;;;;;4989388;28;25062;-62
2021/07/07 04:06:45;;;;;;;10.10;3.70;;;15.90;99.90;;;;;;4991682;28;25084;-62
2021/07/07 04:09:10;;;;;;;6.72;3.20;;;15.80;99.90;;;;;;5004207;28;25083;-62
2021/07/07 04:11:36;;;;;;;7.40;3.47;;;15.80;99.90;;;;;;4990262;28;25075;-63
2021/07/07 04:14:02;;;;;;;10.25;3.70;;;15.80;99.90;;;;;;4989390;28;25070;-61
2021/07/07 04:16:28;;;;;;;11.77;3.70;;;15.80;99.90;;;;;;4989942;28;25059;-62
2021/07/07 04:18:53;;;;;;;5.75;3.40;;;15.80;99.90;;;;;;4991511;28;25080;-62
2021/07/07 04:21:19;;;;;;;12.90;3.88;;;15.80;99.90;;;;;;4989135;28;25078;-62
2021/07/07 04:23:45;;;;;;;11.10;3.45;;;15.80;99.90;;;;;;4997206;28;25157;-62
2021/07/07 04:26:10;;;;;;;8.48;4.13;;;15.70;99.90;;;;;;4995794;28;25066;-63
2021/07/07 04:28:36;;;;;;;8.70;3.13;;;15.80;99.90;;;;;;4989158;28;25070;-62
2021/07/07 04:31:01;;;;;;;8.93;3.03;;;15.90;99.90;;;;;;4989974;28;25068;-62
2021/07/07 04:33:27;;;;;;;6.78;3.70;;;15.90;99.90;;;;;;4988972;28;24869;-63
2021/07/07 04:35:53;;;;;;;8.57;3.45;;;16.00;99.90;;;;;;4988864;28;25084;-60
2021/07/07 04:38:18;;;;;;;7.15;3.22;;;16.10;99.90;;;;;;4988682;28;25081;-62
2021/07/07 04:40:44;;;;;;;5.25;3.58;;;16.10;99.90;;;;;;4989421;28;25094;-62
2021/07/07 04:43:09;;;;;;;8.00;3.65;;;16.10;99.90;;;;;;4988520;28;25136;-62
2021/07/07 04:45:35;;;;;;;7.30;3.17;;;16.00;99.90;;;;;;4990164;28;25092;-63
2021/07/07 04:48:00;;;;;;;6.68;3.42;;;16.00;99.90;;;;;;4988059;28;25087;-62
2021/07/07 04:50:26;;;;;;;5.50;3.17;;;16.00;99.90;;;;;;4988248;28;25075;-63
2021/07/07 04:52:52;;;;;;;4.65;3.00;;;16.10;99.90;;;;;;4986097;28;25125;-61
2021/07/07 04:55:18;;;;;;;5.40;3.63;;;16.20;99.90;;;;;;4985897;28;25065;-61
2021/07/07 04:57:43;;;;;;;8.98;4.10;;;16.30;99.90;;;;;;4989584;28;25068;-62
2021/07/07 05:00:36;;;;;;;5.72;3.58;;;16.30;99.90;;;;;;4988936;28;25097;-62
2021/07/07 05:03:01;;;;;;;7.07;3.45;;;16.30;99.90;;;;;;4987036;28;25071;-63
2021/07/07 05:05:27;;;;;;;5.85;3.17;;;16.30;99.90;;;;;;4988518;28;25127;-62
2021/07/07 05:07:53;;;;;;;5.53;3.28;;;16.30;99.90;;;;;;4988080;28;25135;-62
2021/07/07 05:10:18;;;;;;;6.68;2.90;;;16.50;99.90;;;;;;4990610;28;25085;-62
2021/07/07 05:12:44;;;;;;;10.60;3.28;;;16.50;99.90;;;;;;4988364;28;25139;-61
2021/07/07 05:15:12;;;;;;;5.50;3.05;;;16.50;99.90;;;;;;4988956;28;25058;-62
2021/07/07 05:17:38;;;;;;;8.35;3.28;;;16.40;99.90;;;;;;4989244;28;25089;-63
2021/07/07 05:20:05;;;;;;;11.73;3.78;;;16.30;99.90;;;;;;4988663;28;25121;-61
2021/07/07 05:22:31;;;;;;;5.30;3.40;;;16.30;99.90;;;;;;4990955;28;25115;-64
2021/07/07 05:25:03;;;;;;;8.15;2.95;;;16.40;99.90;;;;;;5055683;28;25086;-62
2021/07/07 05:27:29;;;;;;;4.60;3.38;;;16.40;99.90;;;;;;5044542;28;25098;-62
2021/07/07 05:29:54;;;;;;;4.53;2.47;;;16.40;99.90;;;;;;5045420;28;25090;-62
2021/07/07 05:32:21;;;;;;;7.50;2.78;;;16.40;99.90;;;;;;5042565;28;25081;-63
2021/07/07 05:34:48;;;;;;;4.47;2.70;;;16.40;99.90;;;;;;5038939;28;25150;-62
2021/07/07 05:37:15;;;;;;;9.70;2.90;;;16.40;99.90;;;;;;5041796;28;25104;-63
2021/07/07 05:39:41;;;;;;;5.68;2.63;;;16.30;99.90;;;;;;5039064;28;25062;-65
2021/07/07 05:42:07;;;;;;;5.28;2.75;;;16.30;99.90;;;;;;5041917;28;25123;-62
2021/07/07 05:44:33;;;;;;;5.43;3.08;;;16.40;99.90;;;;;;5043252;28;25055;-61
2021/07/07 05:46:58;;;;;;;5.97;3.00;;;16.60;99.90;;;;;;5041915;28;25047;-62
2021/07/07 05:49:24;;;;;;;5.32;3.35;;;16.60;99.90;;;;;;5042821;28;25077;-61
2021/07/07 05:51:49;;;;;;;6.93;3.35;;;16.70;99.90;;;;;;5039540;28;25084;-62
2021/07/07 05:54:15;;;;;;;6.07;3.05;;;16.60;99.90;;;;;;5025576;28;25125;-61
2021/07/07 05:56:40;;;;;;;6.20;3.15;;;16.50;99.90;;;;;;5038095;28;25063;-63
2021/07/07 05:59:06;;;;;;;6.80;3.22;;;16.60;99.90;;;;;;5034082;28;25094;-62
2021/07/07 06:01:31;;;;;;;7.05;3.75;;;16.60;99.90;;;;;;5034366;28;25106;-61
2021/07/07 06:03:57;;;;;;;5.28;3.15;;;16.50;99.90;;;;;;5040700;28;25078;-61
2021/07/07 06:06:23;;;;;;;5.47;3.50;;;16.60;99.90;;;;;;5036709;28;25126;-63
2021/07/07 06:08:48;;;;;;;8.25;4.05;;;16.70;99.90;;;;;;5041449;28;25063;-61
2021/07/07 06:11:14;;;;;;;9.45;3.80;;;16.70;99.90;;;;;;5043121;28;25050;-63
2021/07/07 06:13:39;;;;;;;9.98;3.97;;;16.80;99.90;;;;;;5036317;28;25087;-62
2021/07/07 06:16:05;;;;;;;9.82;3.17;;;16.70;99.90;;;;;;5038885;28;25155;-62
2021/07/07 06:18:32;;;;;;;8.38;3.40;;;16.80;99.90;;;;;;5044966;28;25080;-63
2021/07/07 06:20:57;;;;;;;9.75;3.83;;;16.80;99.90;;;;;;5037193;28;25080;-63
2021/07/07 06:23:23;;;;;;;6.60;3.50;;;16.70;99.90;;;;;;5042571;28;25049;-62
2021/07/07 06:25:48;;;;;;;11.18;3.83;;;16.60;99.90;;;;;;5034752;28;25059;-61
2021/07/07 06:28:14;;;;;;;8.02;4.07;;;16.50;99.90;;;;;;5042438;28;25059;-63
2021/07/07 06:30:39;;;;;;;8.30;3.17;;;16.70;99.90;;;;;;5044444;28;25073;-63
2021/07/07 06:33:06;;;;;;;10.75;4.53;;;17.00;99.90;;;;;;5038970;28;25140;-62
2021/07/07 06:35:35;;;;;;;5.72;3.80;;;17.10;99.90;;;;;;5028125;28;25094;-62
2021/07/07 06:38:01;;;;;;;8.05;3.38;;;17.10;99.90;;;;;;5028771;28;25061;-65
2021/07/07 06:40:26;;;;;;;6.63;3.58;;;17.20;99.90;;;;;;5024515;28;25080;-64
2021/07/07 06:42:52;;;;;;;11.38;3.95;;;17.30;99.90;;;;;;5027434;28;25062;-67
2021/07/07 06:45:20;;;;;;;7.70;3.70;;;17.50;99.90;;;;;;5030237;28;25096;-63
2021/07/07 06:47:45;;;;;;;7.38;3.63;;;17.60;99.90;;;;;;5027802;28;25116;-63
2021/07/07 06:50:13;;;;;;;4.10;2.80;;;17.60;99.90;;;;;;5029383;28;25105;-65
2021/07/07 06:52:39;;;;;;;11.07;3.30;;;17.80;99.90;;;;;;5021033;28;25067;-62
2021/07/07 06:55:06;;;;;;;8.82;3.78;;;18.00;99.90;;;;;;5028579;28;25051;-63
2021/07/07 06:57:35;;;;;;;14.55;3.80;;;18.20;99.90;;;;;;5021808;28;25093;-62
2021/07/07 07:00:10;;;;;;;10.63;3.33;;;18.20;99.90;;;;;;5016428;28;25125;-64
2021/07/07 07:02:36;;;;;;;11.52;3.45;;;18.30;99.90;;;;;;5012600;28;25070;-62
2021/07/07 07:05:02;;;;;;;6.75;2.88;;;18.40;99.90;;;;;;5016249;28;25060;-63
2021/07/07 07:07:27;;;;;;;7.18;3.60;;;18.50;99.90;;;;;;5014714;28;25075;-64
2021/07/07 07:09:54;;;;;;;8.73;3.30;;;18.60;99.90;;;;;;5014170;28;25066;-62
2021/07/07 07:12:20;;;;;;;13.43;3.40;;;18.70;99.90;;;;;;5019032;28;25167;-64
2021/07/07 07:14:49;;;;;;;16.05;3.05;;;18.80;99.90;;;;;;5018517;28;25071;-64
2021/07/07 07:17:15;;;;;;;9.82;3.80;;;18.80;99.90;;;;;;5014831;28;25080;-64
2021/07/07 07:19:40;;;;;;;8.35;3.20;;;18.70;99.90;;;;;;5015482;28;25115;-63
2021/07/07 07:22:06;;;;;;;12.35;4.50;;;18.80;99.90;;;;;;5016938;28;25147;-64
2021/07/07 07:24:32;;;;;;;10.07;4.40;;;18.70;99.90;;;;;;5015415;28;25059;-64
2021/07/07 07:26:58;;;;;;;7.75;3.58;;;18.70;99.90;;;;;;5017392;28;25124;-63
2021/07/07 07:29:24;;;;;;;10.32;3.42;;;18.70;99.90;;;;;;5016623;28;25076;-63
2021/07/07 07:31:49;;;;;;;10.18;3.95;;;18.70;99.90;;;;;;5050608;22;25093;-70
2021/07/07 07:34:15;;;;;;;8.50;4.07;;;18.80;99.90;;;;;;5053944;28;25060;-66
2021/07/07 07:36:42;;;;;;;8.23;3.33;;;18.60;99.90;;;;;;5039494;28;25078;-66
2021/07/07 07:39:15;;;;;;;7.78;3.20;;;18.90;99.90;;;;;;5054517;28;25085;-66
2021/07/07 07:41:40;;;;;;;7.65;3.00;;;19.10;99.90;;;;;;5051672;28;25080;-68
2021/07/07 07:44:10;;;;;;;7.93;2.95;;;19.20;99.90;;;;;;5048243;28;25132;-70
2021/07/07 07:46:36;;;;;;;11.38;2.97;;;19.20;99.90;;;;;;5041164;28;25060;-66
2021/07/07 07:49:02;;;;;;;9.85;2.40;;;19.20;99.90;;;;;;5045561;28;25134;-68
2021/07/07 07:51:30;;;;;;;7.25;2.88;;;19.20;99.90;;;;;;5043783;28;25068;-66
2021/07/07 07:53:56;;;;;;;7.10;2.60;;;19.20;99.90;;;;;;5041448;28;25094;-69
2021/07/07 07:56:22;;;;;;;8.38;2.35;;;19.20;99.90;;;;;;5045330;28;25099;-69
2021/07/07 07:58:47;;;;;;;5.68;2.42;;;19.30;99.90;;;;;;5036975;28;25075;-69
2021/07/07 08:01:13;;;;;;;4.32;2.20;;;19.40;99.90;;;;;;5036063;28;25066;-70
2021/07/07 08:03:39;;;;;;;6.72;2.63;;;19.40;99.90;;;;;;5043294;28;25115;-69
2021/07/07 08:06:05;;;;;;;10.38;2.47;;;19.20;99.90;;;;;;5046840;28;25106;-69
2021/07/07 08:08:31;;;;;;;4.72;2.50;;;18.90;99.90;;;;;;5041897;28;25073;-68
2021/07/07 08:10:57;;;;;;;5.47;2.28;;;19.00;99.90;;;;;;5052527;28;25085;-71
2021/07/07 08:13:23;;;;;;;3.83;2.28;;;19.20;99.90;;;;;;5038877;28;25053;-70
2021/07/07 08:15:48;;;;;;;9.35;3.10;;;19.40;99.90;;;;;;5047937;28;25104;-69
2021/07/07 08:18:14;;;;;;;6.22;2.72;;;19.30;99.90;;;;;;5048176;28;25079;-67
2021/07/07 08:20:40;;;;;;;5.70;2.50;;;19.40;99.90;;;;;;5038963;28;25069;-69
2021/07/07 08:23:05;;;;;;;8.35;3.10;;;19.40;99.90;;;;;;5037907;28;25185;-68
2021/07/07 08:25:31;;;;;;;5.72;2.60;;;19.30;99.90;;;;;;5044101;28;25086;-70
2021/07/07 08:27:57;;;;;;;7.43;2.40;;;19.20;99.90;;;;;;5049218;28;25047;-70
2021/07/07 08:30:24;;;;;;;8.07;2.92;;;19.10;99.90;;;;;;5044392;28;25140;-68
2021/07/07 08:32:49;;;;;;;10.98;2.95;;;19.20;99.90;;;;;;5042195;28;25154;-68
2021/07/07 08:35:15;;;;;;;6.28;2.90;;;19.10;99.90;;;;;;5044317;28;25152;-70
2021/07/07 08:37:43;;;;;;;9.93;2.85;;;19.30;99.90;;;;;;5044470;28;25091;-68
2021/07/07 08:40:10;;;;;;;5.45;2.80;;;19.30;99.90;;;;;;5043776;28;25079;-70
2021/07/07 08:42:37;;;;;;;14.65;3.78;;;19.10;99.90;;;;;;5046776;28;25054;-70
2021/07/07 08:45:08;;;;;;;5.82;3.25;;;19.10;99.90;;;;;;5045205;28;25076;-67
2021/07/07 08:47:36;;;;;;;15.80;3.60;;;19.20;99.90;;;;;;5049529;28;25065;-69
2021/07/07 08:50:07;;;;;;;6.38;3.28;;;19.30;99.90;;;;;;5054114;28;25069;-70
2021/07/07 08:52:32;;;;;;;7.22;2.65;;;19.40;99.90;;;;;;5055408;28;25069;-70
2021/07/07 08:54:58;;;;;;;3.83;2.75;;;19.40;99.90;;;;;;5043497;28;25208;-70
2021/07/07 08:57:24;;;;;;;6.10;2.55;;;19.60;99.90;;;;;;5044563;28;25052;-68
2021/07/07 08:59:49;;;;;;;5.07;2.50;;;19.90;99.90;;;;;;5043019;28;25110;-67
2021/07/07 09:02:16;;;;;;;5.95;2.47;;;19.80;99.90;;;;;;5035468;28;25085;-66
2021/07/07 09:04:44;;;;;;;5.82;2.53;;;19.70;99.90;;;;;;5045256;28;25107;-71
2021/07/07 09:07:13;;;;;;;11.32;2.80;;;19.80;99.90;;;;;;5047514;28;25062;-67
2021/07/07 09:09:52;;;;;;;4.07;2.30;;;19.90;99.90;;;;;;5044910;28;25084;-68
2021/07/07 09:12:29;;;;;;;7.80;2.92;;;19.80;99.90;;;;;;5034200;28;25070;-70
2021/07/07 09:15:03;;;;;;;6.95;2.65;;;19.60;99.90;;;;;;5041297;28;25080;-71
2021/07/07 09:17:38;;;;;;;5.45;2.20;;;19.30;99.90;;;;;;5037639;28;25138;-68
2021/07/07 09:20:34;;;;;;;4.65;2.40;;;19.20;99.90;;;;;;5045591;28;25060;-70
2021/07/07 09:23:25;;;;;;;6.88;2.80;;;19.20;99.90;;;;;;5037450;28;25059;-71
2021/07/07 09:25:51;;;;;;;7.10;2.53;;;19.20;99.90;;;;;;5029007;28;25098;-69
2021/07/07 09:28:22;;;;;;;9.52;3.13;;;19.20;99.90;;;;;;5041169;28;25136;-67
2021/07/07 09:30:49;;;;;;;6.77;3.33;;;19.00;99.90;;;;;;5044413;28;25056;-69
2021/07/07 09:33:15;;;;;;;7.93;3.40;;;18.90;99.90;;;;;;5038777;28;25087;-69
2021/07/07 09:35:44;;;;;;;6.88;3.42;;;18.90;99.90;;;;;;5034578;28;25154;-69
2021/07/07 09:38:10;;;;;;;7.90;3.53;;;19.20;99.90;;;;;;5037472;28;25059;-71
2021/07/07 09:40:41;;;;;;;8.30;3.30;;;19.20;99.90;;;;;;5043359;28;25077;-69
2021/07/07 09:43:07;;;;;;;10.35;3.78;;;19.10;99.90;;;;;;5040450;28;25070;-70
2021/07/07 09:45:33;;;;;;;6.78;3.75;;;19.20;99.90;;;;;;5044306;28;25070;-70
2021/07/07 09:47:59;;;;;;;11.77;3.60;;;19.00;99.90;;;;;;5043798;28;25079;-68
2021/07/07 09:50:25;;;;;;;11.77;4.30;;;19.00;99.90;;;;;;5039968;28;25054;-69
2021/07/07 09:52:52;;;;;;;9.93;3.17;;;19.00;99.90;;;;;;5041836;28;25056;-69
2021/07/07 09:55:18;;;;;;;10.77;3.42;;;18.80;99.90;;;;;;5021156;28;25070;-70
2021/07/07 09:57:44;;;;;;;5.80;3.47;;;18.70;99.90;;;;;;5046913;28;25061;-68
2021/07/07 10:00:19;;;;;;;6.18;3.70;;;18.70;99.90;;;;;;5039701;28;25072;-67
2021/07/07 10:02:48;;;;;;;5.93;3.10;;;18.90;99.90;;;;;;5036518;28;25056;-69
2021/07/07 10:05:16;;;;;;;16.23;3.42;;;19.20;99.90;;;;;;5045041;28;25128;-72
2021/07/07 10:07:43;;;;;;;7.57;2.47;;;19.30;99.90;;;;;;5032057;28;25067;-67
2021/07/07 10:10:14;;;;;;;9.10;3.55;;;19.40;99.90;;;;;;5046413;28;25072;-69
2021/07/07 10:12:44;;;;;;;6.75;3.30;;;19.50;99.90;;;;;;5030447;28;25083;-71
2021/07/07 10:15:15;;;;;;;7.05;3.22;;;19.60;99.90;;;;;;5038881;28;25054;-71
2021/07/07 10:17:42;;;;;;;7.35;3.17;;;19.80;99.90;;;;;;5034702;28;25100;-69
2021/07/07 10:20:13;;;;;;;6.82;2.88;;;19.80;99.90;;;;;;5038074;28;25132;-69
2021/07/07 10:22:39;;;;;;;7.53;3.10;;;19.70;99.90;;;;;;5045069;28;25064;-72
2021/07/07 10:25:07;;;;;;;9.35;2.70;;;19.80;99.90;;;;;;5045098;28;25048;-70
2021/07/07 10:27:34;;;;;;;9.00;3.63;;;19.70;99.90;;;;;;5042324;28;25084;-68
2021/07/07 10:30:00;;;;;;;30.75;3.88;;;19.80;99.90;;;;;;5047043;28;25087;-69
2021/07/07 10:32:29;;;;;;;5.88;2.75;;;19.80;99.90;;;;;;5039189;28;25107;-73
2021/07/07 10:35:02;;;;;;;6.50;3.25;;;19.70;99.90;;;;;;5040740;28;25161;-69
2021/07/07 10:37:28;;;;;;;8.57;3.28;;;19.70;99.90;;;;;;5042140;28;25111;-68
2021/07/07 10:40:26;;;;;;;6.40;3.42;;;19.70;99.90;;;;;;5047197;28;25085;-67
2021/07/07 10:42:52;;;;;;;5.15;3.67;;;20.00;99.90;;;;;;5049096;28;25136;-66
2021/07/07 10:45:42;;;;;;;9.05;3.15;;;20.10;99.90;;;;;;5051689;28;25093;-69
2021/07/07 10:48:26;;;;;;;6.93;3.33;;;20.30;99.90;;;;;;5037179;28;25073;-67
2021/07/07 10:50:53;;;;;;;6.97;3.03;;;20.40;99.90;;;;;;5042940;28;25075;-68
2021/07/07 10:53:34;;;;;;;4.78;3.15;;;20.50;99.90;;;;;;5042823;28;25059;-71
2021/07/07 10:56:02;;;;;;;6.90;3.50;;;20.60;99.90;;;;;;5047896;28;25137;-66
2021/07/07 10:58:32;;;;;;;5.07;3.03;;;20.40;99.90;;;;;;5045721;28;25089;-67
2021/07/07 11:00:58;;;;;;;5.63;3.15;;;20.20;99.90;;;;;;5041389;28;25123;-69
2021/07/07 11:03:35;;;;;;;7.88;2.67;;;20.60;99.90;;;;;;5046574;28;25076;-70
2021/07/07 11:06:25;;;;;;;5.47;2.33;;;20.90;99.90;;;;;;5041931;28;25111;-67
2021/07/07 11:08:56;;;;;;;6.85;2.67;;;21.10;99.90;;;;;;5021338;28;25099;-68
2021/07/07 11:11:25;;;;;;;10.05;2.50;;;20.90;99.90;;;;;;5033299;28;25148;-66
2021/07/07 11:13:53;;;;;;;9.23;2.15;;;21.00;99.90;;;;;;5038136;28;25057;-67
2021/07/07 11:16:27;;;;;;;4.75;2.33;;;20.80;99.90;;;;;;5050669;28;25091;-69
2021/07/07 11:18:53;;;;;;;7.55;2.78;;;20.80;99.90;;;;;;5047132;28;25082;-69
2021/07/07 11:21:19;;;;;;;8.13;2.97;;;20.90;99.90;;;;;;5035156;28;25050;-69
2021/07/07 11:23:46;;;;;;;7.15;3.00;;;20.80;99.90;;;;;;5032257;28;25057;-67
2021/07/07 11:26:12;;;;;;;6.20;3.13;;;20.90;99.90;;;;;;5040254;28;25116;-72
2021/07/07 11:28:38;;;;;;;9.18;2.78;;;20.90;99.90;;;;;;5039359;28;25135;-66
2021/07/07 11:31:04;;;;;;;5.63;2.90;;;21.20;99.90;;;;;;5049273;28;25087;-70
2021/07/07 11:33:30;;;;;;;6.88;2.78;;;21.40;99.90;;;;;;5039896;28;25060;-70
2021/07/07 11:35:56;;;;;;;3.78;2.40;;;21.50;99.90;;;;;;5047406;28;25108;-69
2021/07/07 11:38:27;;;;;;;11.90;3.03;;;21.50;99.90;;;;;;5043524;28;25072;-71
2021/07/07 11:40:54;;;;;;;2.72;2.40;;;21.60;99.90;;;;;;5045400;28;25066;-72
2021/07/07 11:43:21;;;;;;;12.90;2.30;;;21.50;99.90;;;;;;5047240;28;25091;-71
2021/07/07 11:46:06;;;;;;;5.60;2.20;;;21.50;99.90;;;;;;5045788;28;25142;-69
2021/07/07 11:48:46;;;;;;;3.92;2.03;;;21.20;99.90;;;;;;5043403;28;25061;-68
2021/07/07 11:51:16;;;;;;;9.07;2.70;;;21.20;99.90;;;;;;5042043;28;25131;-68
2021/07/07 11:53:44;;;;;;;4.63;2.40;;;21.40;99.90;;;;;;5043289;28;25061;-71
2021/07/07 11:56:20;;;;;;;6.72;2.35;;;21.50;99.90;;;;;;5052714;28;25053;-69
2021/07/07 11:58:55;;;;;;;4.53;2.15;;;21.70;99.90;;;;;;5042975;28;25085;-71
2021/07/07 12:01:32;;;;;;;4.45;2.20;;;21.70;99.90;;;;;;5042405;28;25052;-72
2021/07/07 12:03:59;;;;;;;7.70;2.63;;;21.80;99.90;;;;;;5055352;28;25073;-69
2021/07/07 12:06:31;;;;;;;3.83;2.30;;;21.80;99.90;;;;;;5048264;28;25060;-68
2021/07/07 12:08:57;;;;;;;3.25;2.20;;;21.70;99.90;;;;;;5045693;28;25048;-71
2021/07/07 12:11:23;;;;;;;5.80;2.55;;;21.50;99.90;;;;;;5037210;28;25065;-71
2021/07/07 12:13:53;;;;;;;7.60;2.55;;;21.50;99.90;;;;;;5046100;28;25071;-70
2021/07/07 12:16:29;;;;;;;5.20;2.50;;;21.70;99.90;;;;;;5035963;28;25121;-71
2021/07/07 12:18:56;;;;;;;5.38;1.92;;;21.40;99.90;;;;;;5044371;28;25132;-69
2021/07/07 12:21:24;;;;;;;6.05;2.42;;;21.50;99.90;;;;;;5046612;28;25077;-70
2021/07/07 12:23:55;;;;;;;4.60;2.22;;;21.80;99.90;;;;;;5044981;28;25120;-72
2021/07/07 12:26:26;;;;;;;5.85;2.55;;;22.10;99.90;;;;;;5037289;28;25095;-70
2021/07/07 12:28:54;;;;;;;5.35;2.45;;;22.40;99.90;;;;;;5044450;28;25083;-68
2021/07/07 12:31:21;;;;;;;4.10;2.60;;;22.20;99.90;;;;;;5030296;28;25102;-71
2021/07/07 12:33:51;;;;;;;4.38;2.60;;;22.20;99.90;;;;;;5042103;28;25102;-71
2021/07/07 12:36:27;;;;;;;10.05;2.80;;;22.20;99.90;;;;;;5038117;28;25075;-70
2021/07/07 12:38:56;;;;;;;7.70;2.72;;;22.20;99.90;;;;;;5049142;28;25072;-69
2021/07/07 12:41:31;;;;;;;4.53;2.13;;;22.20;99.90;;;;;;5045516;28;25064;-69
2021/07/07 12:44:10;;;;;;;4.00;2.40;;;22.10;99.90;;;;;;5040046;28;25121;-70
2021/07/07 12:46:56;;;;;;;7.50;3.00;;;22.30;99.90;;;;;;5042782;28;25128;-71
2021/07/07 12:49:50;;;;;;;10.15;3.83;;;22.20;99.90;;;;;;5043452;28;25058;-71
2021/07/07 12:52:17;;;;;;;7.68;2.42;;;22.50;99.90;;;;;;5041901;28;25068;-68